Time;durP1;ratioP1;P1;durP2;ratioP2;P2;SDS_P1;SDS_P2;PMS_P1;PMS_P2;Temp;Humidity;BMP_temperature;BMP_pressure;BME280_temperature;BME280_humidity;BME280_pressure;Samples;Min_cycle;Max_cycle;Signal;HPM_P1;HPM_P2
2021/12/07 00:00:36;;;;;;;23.77;6.30;;;;;;;1.99;100.00;98002.03;4910082;29;20036;-84
2021/12/07 00:03:02;;;;;;;20.67;5.97;;;;;;;1.91;100.00;98009.81;4917400;29;20402;-82
2021/12/07 00:05:28;;;;;;;17.58;6.90;;;;;;;2.04;100.00;98015.28;4895924;29;20036;-84
2021/12/07 00:07:53;;;;;;;18.98;6.95;;;;;;;2.04;100.00;98015.28;4916669;29;20042;-85
2021/12/07 00:10:21;;;;;;;15.20;6.82;;;;;;;1.95;100.00;98011.09;4930175;29;20078;-82
2021/12/07 00:12:47;;;;;;;15.50;7.28;;;;;;;2.00;100.00;98014.00;4924162;29;20149;-85
2021/12/07 00:15:16;;;;;;;18.65;7.47;;;;;;;1.97;100.00;98004.00;4927482;29;20091;-85
2021/12/07 00:17:43;;;;;;;22.60;7.22;;;;;;;2.00;100.00;98006.25;4894201;29;20035;-84
2021/12/07 00:20:12;;;;;;;21.05;6.78;;;;;;;2.05;100.00;98022.09;4895020;29;20047;-85
2021/12/07 00:22:39;;;;;;;14.45;5.82;;;;;;;2.15;100.00;98032.25;4917669;29;20482;-83
2021/12/07 00:25:07;;;;;;;20.80;6.45;;;;;;;2.17;100.00;98034.69;4899035;29;20040;-85
2021/12/07 00:27:33;;;;;;;22.10;5.68;;;;;;;2.10;100.00;98030.16;4928922;29;20043;-85
2021/12/07 00:29:58;;;;;;;13.88;5.25;;;;;;;2.08;100.00;98036.50;4899282;29;20518;-83
2021/12/07 00:32:30;;;;;;;19.90;5.70;;;;;;;2.11;100.00;98039.53;4904887;29;20055;-86
2021/12/07 00:37:38;;;;;;;23.05;6.15;;;;;;;1.99;100.00;98033.09;4934255;29;20036;-86
2021/12/07 00:40:07;;;;;;;15.38;6.80;;;;;;;1.86;100.00;98007.69;4920133;29;20039;-86
2021/12/07 00:42:34;;;;;;;13.90;6.75;;;;;;;2.00;100.00;98016.59;4937489;29;20059;-85
2021/12/07 00:45:00;;;;;;;29.40;6.57;;;;;;;1.93;100.00;97998.31;4913770;29;20036;-85
2021/12/07 00:47:26;;;;;;;17.85;6.15;;;;;;;1.88;100.00;98004.97;4923696;29;20028;-87
2021/12/07 00:49:51;;;;;;;15.48;6.55;;;;;;;1.75;100.00;98008.06;4915371;29;20091;-86
2021/12/07 00:52:17;;;;;;;21.23;6.18;;;;;;;1.83;100.00;98003.69;4919264;29;20094;-87
2021/12/07 00:54:43;;;;;;;15.90;6.05;;;;;;;1.71;100.00;97994.63;4910375;29;20079;-86
2021/12/07 00:57:09;;;;;;;19.08;6.43;;;;;;;1.82;100.00;97996.91;4915872;29;20394;-85
2021/12/07 00:59:35;;;;;;;17.30;6.10;;;;;;;1.75;100.00;97990.75;4927091;29;20068;-86
2021/12/07 01:02:01;;;;;;;13.90;6.13;;;;;;;1.67;100.00;97988.16;4899514;29;20541;-85
2021/12/07 01:04:28;;;;;;;24.50;7.57;;;;;;;1.77;100.00;97990.59;4921763;29;20134;-85
2021/12/07 01:25:56;;;;;;;18.90;5.32;;;;;;;1.50;100.00;97993.34;4951950;29;20036;-85
2021/12/07 01:28:36;;;;;;;17.15;5.63;;;;;;;1.61;100.00;98004.34;4923367;29;20096;-83
2021/12/07 01:31:18;;;;;;;14.60;6.00;;;;;;;1.62;100.00;98005.97;4915559;29;20057;-83
2021/12/07 01:42:54;;;;;;;20.45;8.43;;;;;;;1.62;100.00;97990.44;4933339;29;20036;-83
2021/12/07 01:59:31;;;;;;;14.52;4.85;;;;;;;1.54;100.00;97953.25;4936852;29;20043;-84
2021/12/07 02:00:41;;;;;;;18.17;5.05;;;;;;;1.53;100.00;97959.41;4929518;29;20421;-83
2021/12/07 02:03:07;;;;;;;17.95;5.30;;;;;;;1.50;100.00;97956.34;4923331;29;20036;-84
2021/12/07 02:05:33;;;;;;;13.73;5.70;;;;;;;1.53;100.00;97956.03;4936028;29;20038;-83
2021/12/07 02:07:59;;;;;;;24.50;5.95;;;;;;;1.48;100.00;97966.84;4935149;29;20030;-81
2021/12/07 02:10:29;;;;;;;20.33;6.05;;;;;;;1.52;100.00;97950.03;4919156;29;20051;-84
2021/12/07 02:13:02;;;;;;;20.83;7.50;;;;;;;1.50;100.00;97962.31;4914584;29;20040;-82
2021/12/07 02:15:29;;;;;;;26.00;4.75;;;;;;;1.50;100.00;97970.06;4936248;29;20046;-82
2021/12/07 02:17:55;;;;;;;16.77;4.40;;;;;;;1.45;100.00;97967.16;4935361;29;20439;-83
2021/12/07 02:20:27;;;;;;;18.05;5.10;;;;;;;1.62;100.00;97970.53;4934609;29;20122;-84
2021/12/07 02:22:53;;;;;;;11.98;4.13;;;;;;;1.50;100.00;97974.44;4895770;29;20517;-84
2021/12/07 02:25:19;;;;;;;14.27;4.10;;;;;;;1.31;100.00;97970.41;4900295;29;20028;-84
2021/12/07 02:27:47;;;;;;;24.30;4.90;;;;;;;1.26;100.00;97974.28;4948188;29;20032;-83
2021/12/07 02:30:15;;;;;;;14.57;3.78;;;;;;;1.17;100.00;97998.50;4932818;29;20031;-83
2021/12/07 02:32:42;;;;;;;12.43;5.10;;;;;;;0.98;100.00;98005.59;4937741;29;20095;-84
2021/12/07 02:35:10;;;;;;;16.73;5.03;;;;;;;0.90;100.00;97999.59;4915052;29;20075;-83
2021/12/07 02:37:36;;;;;;;22.52;5.03;;;;;;;0.75;100.00;97984.69;4912764;29;20051;-84
2021/12/07 02:40:05;;;;;;;16.77;3.72;;;;;;;0.86;100.00;97996.50;4917716;29;20031;-85
2021/12/07 02:42:32;;;;;;;18.23;4.22;;;;;;;0.74;100.00;97984.84;4908012;29;20024;-85
2021/12/07 02:44:57;;;;;;;22.67;4.05;;;;;;;0.75;100.00;97981.28;4924245;29;20039;-84
2021/12/07 02:47:23;;;;;;;21.80;5.05;;;;;;;0.75;100.00;97989.03;4916666;29;20023;-86
2021/12/07 02:49:49;;;;;;;18.20;3.78;;;;;;;0.70;100.00;97989.53;4920658;29;20031;-83
2021/12/07 02:52:15;;;;;;;17.33;4.30;;;;;;;0.80;100.00;98010.06;4925335;29;20082;-83
2021/12/07 02:54:49;;;;;;;17.23;3.63;;;;;;;0.84;100.00;98009.56;4943487;29;20031;-84
2021/12/07 02:57:17;;;;;;;18.38;4.30;;;;;;;0.97;100.00;98013.50;4904350;29;20030;-84
2021/12/07 02:59:50;;;;;;;20.55;4.10;;;;;;;0.99;100.00;98003.81;4916644;29;20462;-86
2021/12/07 03:02:17;;;;;;;23.20;5.22;;;;;;;1.09;100.00;98016.59;4915938;29;20035;-86
2021/12/07 03:05:03;;;;;;;23.23;5.88;;;;;;;0.87;100.00;97990.38;4921214;29;20054;-84
2021/12/07 03:26:40;;;;;;;8.80;4.68;;;;;;;0.68;100.00;98010.34;4914073;29;20145;-81
2021/12/07 03:29:06;;;;;;;15.00;4.05;;;;;;;0.54;100.00;97985.94;4925356;29;20039;-85
2021/12/07 03:31:32;;;;;;;13.73;3.88;;;;;;;0.65;100.00;98025.34;4915218;29;20387;-83
2021/12/07 03:34:00;;;;;;;13.40;3.80;;;;;;;0.54;100.00;98016.09;4913541;29;20052;-83
2021/12/07 03:36:27;;;;;;;11.13;3.97;;;;;;;0.58;100.00;98030.31;4912963;29;20036;-83
2021/12/07 03:38:52;;;;;;;13.52;3.75;;;;;;;0.70;100.00;98030.84;4914145;29;20036;-82
2021/12/07 03:41:19;;;;;;;17.70;4.00;;;;;;;0.85;100.00;98033.66;4910136;29;20382;-83
2021/12/07 03:46:29;;;;;;;19.05;4.07;;;;;;;1.01;100.00;98017.38;4918470;29;20406;-84
2021/12/07 03:48:55;;;;;;;17.95;4.03;;;;;;;0.92;100.00;98015.75;4904647;29;20024;-84
2021/12/07 03:51:21;;;;;;;19.67;4.53;;;;;;;0.93;100.00;98015.56;4897841;29;20406;-84
2021/12/07 03:53:47;;;;;;;10.88;2.97;;;;;;;0.92;100.00;98018.34;4925072;29;20039;-83
2021/12/07 03:56:13;;;;;;;11.10;3.53;;;;;;;0.78;100.00;98001.63;4922966;29;20038;-83
2021/12/07 03:58:39;;;;;;;13.43;3.08;;;;;;;0.91;100.00;98025.25;4918366;29;20056;-84
2021/12/07 04:01:07;;;;;;;17.88;3.90;;;;;;;0.92;100.00;98021.72;4922390;29;20071;-84
2021/12/07 04:03:35;;;;;;;17.33;3.17;;;;;;;0.88;100.00;98014.41;4918838;29;20142;-84
2021/12/07 04:06:05;;;;;;;11.30;3.22;;;;;;;0.85;100.00;97994.91;4910779;29;20119;-83
2021/12/07 04:08:33;;;;;;;15.98;3.13;;;;;;;0.89;100.00;97991.03;4920276;29;20041;-83
2021/12/07 04:10:59;;;;;;;12.02;3.00;;;;;;;0.85;100.00;97984.56;4941390;29;20035;-84
2021/12/07 04:13:25;;;;;;;17.13;3.45;;;;;;;0.93;100.00;97992.31;4914552;29;20032;-83
2021/12/07 04:15:51;;;;;;;12.70;3.08;;;;;;;0.99;100.00;97981.38;4941813;29;20027;-83
2021/12/07 04:18:19;;;;;;;11.13;3.08;;;;;;;1.10;100.00;97971.69;4909555;29;20395;-84
2021/12/07 04:20:44;;;;;;;19.50;3.60;;;;;;;1.39;100.00;97945.34;4916044;29;20028;-84
2021/12/07 04:23:10;;;;;;;16.35;3.85;;;;;;;1.65;100.00;97933.22;4936694;29;20125;-83
2021/12/07 04:25:36;;;;;;;18.45;2.83;;;;;;;1.66;100.00;97920.09;4913291;29;20449;-84
2021/12/07 04:28:04;;;;;;;14.95;2.75;;;;;;;1.64;100.00;97901.34;4887486;29;20028;-84
2021/12/07 04:30:33;;;;;;;14.05;2.92;;;;;;;1.69;100.00;97904.25;4915610;29;20056;-85
2021/12/07 04:33:00;;;;;;;18.33;3.05;;;;;;;1.64;100.00;97895.38;4908354;29;20560;-81
2021/12/07 04:35:27;;;;;;;12.45;2.95;;;;;;;1.69;100.00;97931.91;4931907;29;20075;-85
2021/12/07 04:37:52;;;;;;;10.40;3.45;;;;;;;1.60;100.00;97946.63;4918555;29;20040;-85
2021/12/07 04:40:24;;;;;;;18.55;3.95;;;;;;;1.53;100.00;97953.44;4912658;29;20088;-83
2021/12/07 04:42:50;;;;;;;12.18;2.72;;;;;;;1.40;100.00;97946.16;4937453;29;20032;-85
2021/12/07 04:57:36;;;;;;;19.90;2.88;;;;;;;1.31;100.00;97942.78;4935169;29;20029;-83
2021/12/07 04:58:50;;;;;;;17.48;2.97;;;;;;;1.25;100.00;97918.38;4915731;29;20040;-83
2021/12/07 05:01:16;;;;;;;15.77;3.10;;;;;;;1.19;100.00;97919.03;4922932;29;20035;-83
2021/12/07 05:03:46;;;;;;;16.08;2.83;;;;;;;1.16;100.00;97924.50;4897392;29;20494;-84
2021/12/07 05:06:12;;;;;;;14.98;3.03;;;;;;;1.13;100.00;97920.47;4928178;29;20028;-83
2021/12/07 05:08:44;;;;;;;12.23;2.63;;;;;;;1.09;100.00;97918.38;4925027;29;20483;-83
2021/12/07 05:25:07;;;;;;;22.23;3.13;;;;;;;0.98;100.00;97886.72;4920183;29;20027;-83
2021/12/07 05:38:32;;;;;;;12.30;2.85;;;;;;;1.06;100.00;97860.06;4925185;29;20028;-83
2021/12/07 05:40:59;;;;;;;17.42;3.20;;;;;;;1.04;100.00;97858.63;4916303;29;20098;-81
2021/12/07 05:43:25;;;;;;;14.43;3.05;;;;;;;0.93;100.00;97845.03;4917957;29;20032;-84
2021/12/07 05:45:50;;;;;;;11.27;2.47;;;;;;;0.98;100.00;97853.13;4930277;29;20039;-83
2021/12/07 05:48:16;;;;;;;15.77;2.80;;;;;;;0.97;100.00;97858.44;4914163;29;20473;-83
2021/12/07 05:50:43;;;;;;;11.55;2.85;;;;;;;0.95;100.00;97857.81;4915779;29;20034;-83
2021/12/07 05:53:10;;;;;;;18.40;3.17;;;;;;;0.94;100.00;97849.25;4912033;29;20126;-83
2021/12/07 05:55:37;;;;;;;12.50;3.67;;;;;;;1.02;100.00;97845.84;4930326;29;20040;-85
2021/12/07 05:58:04;;;;;;;11.73;2.95;;;;;;;0.98;100.00;97847.16;4914978;29;20040;-83
2021/12/07 06:00:32;;;;;;;11.10;2.80;;;;;;;1.01;100.00;97833.09;4918171;29;20059;-84
2021/12/07 06:03:04;;;;;;;13.63;3.00;;;;;;;1.08;100.00;97844.41;4937305;29;20454;-85
2021/12/07 06:05:31;;;;;;;21.48;3.97;;;;;;;1.12;100.00;97841.34;4922920;29;20040;-83
2021/12/07 06:07:57;;;;;;;10.23;3.03;;;;;;;1.10;100.00;97829.53;4912125;29;20028;-85
2021/12/07 06:10:24;;;;;;;9.07;3.17;;;;;;;0.95;100.00;97804.34;4930322;29;20027;-82
2021/12/07 06:12:49;;;;;;;11.73;3.75;;;;;;;0.99;100.00;97803.06;4894466;29;20032;-85
2021/12/07 06:15:19;;;;;;;16.63;2.88;;;;;;;0.95;100.00;97785.47;4932266;29;20498;-84
2021/12/07 06:17:45;;;;;;;9.32;3.90;;;;;;;1.04;100.00;97802.56;4912766;29;20040;-83
2021/12/07 06:20:11;;;;;;;10.93;3.70;;;;;;;0.93;100.00;97784.81;4926122;29;20031;-83
2021/12/07 06:22:37;;;;;;;12.57;2.95;;;;;;;1.07;100.00;97797.06;4900443;29;20086;-83
2021/12/07 06:25:04;;;;;;;11.45;3.42;;;;;;;0.93;100.00;97785.63;4900013;29;20046;-83
2021/12/07 06:27:30;;;;;;;10.32;3.03;;;;;;;1.00;100.00;97790.94;4929695;29;20028;-84
2021/12/07 06:29:57;;;;;;;18.70;3.92;;;;;;;1.01;100.00;97777.03;4897929;29;20043;-85
2021/12/07 06:32:23;;;;;;;12.27;3.22;;;;;;;0.97;100.00;97768.81;4908233;29;20054;-84
2021/12/07 06:34:49;;;;;;;19.42;5.07;;;;;;;0.94;100.00;97770.94;4912889;29;20159;-82
2021/12/07 06:37:26;;;;;;;13.70;3.25;;;;;;;0.94;100.00;97765.75;4902460;29;20027;-83
2021/12/07 06:39:51;;;;;;;14.57;3.50;;;;;;;0.83;100.00;97752.19;4931332;29;20031;-83
2021/12/07 06:42:22;;;;;;;17.63;4.35;;;;;;;0.86;100.00;97756.25;4897884;29;20040;-84
2021/12/07 06:44:47;;;;;;;13.30;4.22;;;;;;;0.92;100.00;97741.88;4935149;29;20054;-83
2021/12/07 06:47:13;;;;;;;15.88;4.13;;;;;;;0.92;100.00;97736.72;4911311;29;20546;-83
2021/12/07 06:49:38;;;;;;;14.30;3.60;;;;;;;0.85;100.00;97728.81;4928623;29;20057;-83
2021/12/07 06:52:04;;;;;;;14.38;3.97;;;;;;;0.85;100.00;97723.63;4926817;29;20084;-83
2021/12/07 06:54:31;;;;;;;18.75;4.60;;;;;;;0.91;100.00;97725.56;4909689;29;20127;-83
2021/12/07 06:56:58;;;;;;;15.52;4.53;;;;;;;0.82;100.00;97714.44;4906999;29;20061;-83
2021/12/07 06:59:23;;;;;;;28.00;5.55;;;;;;;0.82;100.00;97711.06;4932343;29;20122;-81
2021/12/07 07:01:52;;;;;;;22.65;6.75;;;;;;;0.87;100.00;97706.19;4914743;29;20071;-81
2021/12/07 07:04:17;;;;;;;19.00;6.40;;;;;;;0.85;100.00;97702.97;4894835;29;20032;-84
2021/12/07 07:06:43;;;;;;;20.17;7.38;;;;;;;0.85;100.00;97692.63;4912554;29;20383;-83
2021/12/07 07:09:10;;;;;;;46.17;10.57;;;;;;;0.87;100.00;97698.44;4914342;29;20020;-83
2021/12/07 07:11:36;;;;;;;21.48;8.07;;;;;;;0.91;100.00;97689.38;4928301;29;20031;-83
2021/12/07 07:14:02;;;;;;;33.83;11.18;;;;;;;0.87;100.00;97682.94;4925968;29;20479;-82
2021/12/07 07:16:28;;;;;;;16.27;7.32;;;;;;;0.87;100.00;97672.59;4929372;29;20036;-83
2021/12/07 07:18:55;;;;;;;24.20;9.65;;;;;;;0.95;100.00;97682.13;4928533;29;20043;-83
2021/12/07 07:21:21;;;;;;;26.00;11.35;;;;;;;0.97;100.00;97668.03;4928391;29;20074;-84
2021/12/07 07:23:46;;;;;;;15.93;7.25;;;;;;;0.90;100.00;97650.81;4926884;29;20493;-84
2021/12/07 07:26:12;;;;;;;24.48;7.13;;;;;;;0.89;100.00;97639.66;4926565;29;20044;-82
2021/12/07 07:28:38;;;;;;;38.15;11.05;;;;;;;0.99;100.00;97645.44;4895601;29;20087;-83
2021/12/07 07:31:05;;;;;;;20.83;9.23;;;;;;;1.00;100.00;97628.16;4911004;29;20048;-83
2021/12/07 07:33:31;;;;;;;33.50;10.13;;;;;;;1.04;100.00;97615.72;4911211;29;20036;-83
2021/12/07 07:35:57;;;;;;;26.83;9.27;;;;;;;0.99;100.00;97600.69;4922925;29;20032;-84
2021/12/07 07:38:23;;;;;;;21.17;7.85;;;;;;;1.08;100.00;97616.97;4910555;29;20552;-84
2021/12/07 07:40:49;;;;;;;27.58;9.38;;;;;;;1.02;100.00;97617.66;4911301;29;20050;-84
2021/12/07 07:43:17;;;;;;;21.42;9.65;;;;;;;0.97;100.00;97597.47;4909693;29;20142;-84
2021/12/07 07:45:44;;;;;;;30.00;9.88;;;;;;;1.11;100.00;97585.63;4924195;29;20478;-82
2021/12/07 07:48:09;;;;;;;28.08;9.75;;;;;;;1.12;100.00;97576.88;4912691;29;20047;-83
2021/12/07 07:50:36;;;;;;;22.38;10.45;;;;;;;1.12;100.00;97562.19;4913694;29;20059;-83
2021/12/07 07:53:01;;;;;;;26.02;10.30;;;;;;;1.08;100.00;97560.13;4909388;29;20043;-84
2021/12/07 07:55:27;;;;;;;26.50;11.63;;;;;;;0.99;100.00;97536.94;4901978;29;20050;-85
2021/12/07 07:57:53;;;;;;;26.45;11.20;;;;;;;1.05;100.00;97521.72;4911125;29;20581;-84
2021/12/07 08:00:21;;;;;;;25.30;10.85;;;;;;;1.01;100.00;97517.84;4928182;29;20031;-84
2021/12/07 08:02:48;;;;;;;32.45;10.57;;;;;;;1.00;100.00;97506.72;4926669;29;20052;-84
2021/12/07 08:05:14;;;;;;;26.88;11.10;;;;;;;1.18;100.00;97518.56;4911306;29;20044;-85
2021/12/07 08:07:40;;;;;;;25.50;12.50;;;;;;;1.18;100.00;97513.38;4908789;29;20027;-84
2021/12/07 08:10:09;;;;;;;33.78;13.18;;;;;;;1.22;100.00;97518.03;4910682;29;20127;-84
2021/12/07 08:12:35;;;;;;;27.05;11.65;;;;;;;1.26;100.00;97519.31;4878193;29;20119;-87
2021/12/07 08:15:04;;;;;;;30.83;11.77;;;;;;;1.24;100.00;97517.84;4893143;29;20038;-85
2021/12/07 08:17:29;;;;;;;28.35;15.15;;;;;;;1.22;100.00;97515.47;4916721;29;20513;-87
2021/12/07 08:19:55;;;;;;;33.72;13.18;;;;;;;1.22;100.00;97512.06;4910773;29;20032;-84
2021/12/07 08:22:23;;;;;;;34.40;13.68;;;;;;;1.16;100.00;97499.84;4912292;29;20130;-86
2021/12/07 08:24:50;;;;;;;25.00;12.43;;;;;;;1.28;100.00;97519.16;4889898;29;20075;-85
2021/12/07 08:27:16;;;;;;;33.22;12.65;;;;;;;1.34;100.00;97507.28;4925950;29;20462;-85
2021/12/07 08:29:41;;;;;;;23.88;12.30;;;;;;;1.27;100.00;97471.78;4909802;29;20032;-84
2021/12/07 08:32:08;;;;;;;25.85;13.10;;;;;;;1.36;100.00;97448.44;4911851;29;20054;-88
2021/12/07 08:34:33;;;;;;;29.27;10.90;;;;;;;1.43;100.00;97451.97;4898280;29;20024;-88
2021/12/07 08:36:59;;;;;;;29.75;10.73;;;;;;;1.52;100.00;97437.97;4910076;29;20028;-89
2021/12/07 08:39:24;;;;;;;23.92;8.93;;;;;;;1.45;100.00;97437.06;4928754;29;20042;-87
2021/12/07 08:41:53;;;;;;;21.92;8.05;;;;;;;1.49;100.00;97440.13;4894642;29;20095;-86
2021/12/07 08:44:19;;;;;;;25.35;8.23;;;;;;;1.39;100.00;97427.44;4892449;29;20024;-86
2021/12/07 08:46:45;;;;;;;24.33;7.78;;;;;;;1.35;100.00;97423.59;4915337;29;20118;-86
2021/12/07 08:49:15;;;;;;;31.35;7.63;;;;;;;1.33;100.00;97428.13;4898312;29;20032;-88
2021/12/07 08:51:42;;;;;;;24.50;6.93;;;;;;;1.18;100.00;97402.25;4927661;29;20159;-86
2021/12/07 08:59:46;;;;;;;20.67;6.80;;;;;;;1.13;100.00;97387.25;4919068;29;20426;-86
2021/12/07 09:02:19;;;;;;;20.38;6.30;;;;;;;1.36;100.00;97394.16;4903242;29;20111;-84
2021/12/07 09:04:46;;;;;;;19.00;6.32;;;;;;;1.35;100.00;97393.38;4926276;29;20032;-87
2021/12/07 09:07:13;;;;;;;18.10;5.78;;;;;;;1.39;100.00;97391.25;4899414;29;20024;-85
2021/12/07 09:09:42;;;;;;;20.17;5.47;;;;;;;1.34;100.00;97378.03;4906483;29;20553;-86
2021/12/07 09:12:10;;;;;;;22.70;5.90;;;;;;;1.34;100.00;97347.00;4928268;29;20032;-88
2021/12/07 09:14:35;;;;;;;17.65;4.80;;;;;;;1.42;100.00;97334.00;4912114;29;20036;-86
2021/12/07 09:17:03;;;;;;;19.98;4.78;;;;;;;1.37;100.00;97310.44;4911087;29;20031;-87
2021/12/07 09:19:30;;;;;;;18.17;4.95;;;;;;;1.51;100.00;97332.16;4930931;29;20035;-84
2021/12/07 09:21:56;;;;;;;23.80;5.65;;;;;;;1.60;100.00;97331.06;4908276;29;20035;-80
2021/12/07 09:24:22;;;;;;;27.00;5.82;;;;;;;1.69;100.00;97331.78;4934038;29;20028;-81
2021/12/07 09:26:49;;;;;;;17.17;5.20;;;;;;;1.89;100.00;97334.63;4927157;29;20032;-81
2021/12/07 09:29:15;;;;;;;17.67;4.82;;;;;;;2.09;100.00;97327.06;4903622;29;20036;-81
2021/12/07 09:31:41;;;;;;;22.60;6.53;;;;;;;2.19;100.00;97333.75;4925499;29;20043;-81
2021/12/07 09:34:11;;;;;;;16.90;4.65;;;;;;;2.21;100.00;97326.59;4930432;29;20036;-85
2021/12/07 09:36:38;;;;;;;18.25;4.78;;;;;;;2.26;100.00;97311.31;4926184;29;20664;-83
2021/12/07 09:39:06;;;;;;;20.83;5.65;;;;;;;2.41;100.00;97293.13;4934339;29;20032;-82
2021/12/07 09:41:33;;;;;;;13.70;4.93;;;;;;;2.46;100.00;97271.84;4927918;29;20032;-84
2021/12/07 09:43:59;;;;;;;11.95;4.45;;;;;;;2.51;100.00;97259.16;4892815;29;20032;-84
2021/12/07 09:46:25;;;;;;;17.65;4.68;;;;;;;2.62;100.00;97248.28;4909415;29;20373;-83
2021/12/07 09:48:51;;;;;;;15.73;4.80;;;;;;;2.48;100.00;97212.91;4921878;29;20032;-84
2021/12/07 09:51:19;;;;;;;19.23;4.65;;;;;;;2.74;100.00;97216.66;4912283;29;20047;-83
2021/12/07 09:53:47;;;;;;;15.95;4.72;;;;;;;2.75;100.00;97198.34;4911505;29;20035;-83
2021/12/07 09:56:13;;;;;;;19.48;4.63;;;;;;;2.78;100.00;97176.47;4926161;29;20031;-82
2021/12/07 09:58:40;;;;;;;15.50;4.20;;;;;;;2.87;100.00;97174.50;4902639;29;20028;-81
2021/12/07 10:01:08;;;;;;;17.70;4.25;;;;;;;3.04;100.00;97169.81;4909387;29;20119;-82
2021/12/07 10:03:35;;;;;;;19.60;4.65;;;;;;;2.94;100.00;97160.56;4908580;29;20032;-82
2021/12/07 10:06:01;;;;;;;20.80;5.05;;;;;;;2.98;100.00;97135.91;4908614;29;20027;-82
2021/12/07 10:08:26;;;;;;;19.15;4.18;;;;;;;3.18;100.00;97129.19;4927622;29;20084;-83
2021/12/07 10:10:55;;;;;;;16.40;4.43;;;;;;;3.31;100.00;97123.22;4893518;29;20134;-84
2021/12/07 10:13:24;;;;;;;21.20;4.28;;;;;;;3.15;100.00;97104.47;4928389;29;20044;-82
2021/12/07 10:15:53;;;;;;;14.75;3.80;;;;;;;3.27;100.00;97092.50;4910099;29;20047;-82
2021/12/07 10:18:28;;;;;;;15.35;3.60;;;;;;;3.43;100.00;97093.16;4908429;29;20033;-83
2021/12/07 10:20:58;;;;;;;13.45;4.10;;;;;;;3.51;100.00;97071.41;4927868;29;20442;-83
2021/12/07 10:23:37;;;;;;;14.27;4.00;;;;;;;3.53;100.00;97066.81;4907501;29;20854;-82
2021/12/07 10:26:10;;;;;;;18.33;5.00;;;;;;;3.64;100.00;97057.66;4929196;29;20031;-82
2021/12/07 10:28:51;;;;;;;17.63;3.65;;;;;;;3.72;100.00;97044.47;4908835;29;20028;-83
2021/12/07 10:31:35;;;;;;;17.42;3.63;;;;;;;3.74;100.00;97021.75;4928237;29;20071;-83
2021/12/07 10:34:11;;;;;;;14.98;3.20;;;;;;;3.71;100.00;97029.91;4894422;29;20096;-83
2021/12/07 10:36:44;;;;;;;11.90;3.50;;;;;;;3.45;100.00;96987.41;4930437;29;20028;-82
2021/12/07 10:39:22;;;;;;;18.20;3.33;;;;;;;3.63;100.00;96991.19;4925473;29;20482;-84
2021/12/07 10:42:23;;;;;;;9.52;2.85;;;;;;;3.78;100.00;96958.06;4927681;29;20526;-84
2021/12/07 10:44:48;;;;;;;18.15;2.70;;;;;;;3.89;100.00;96966.22;4905226;29;20040;-82
2021/12/07 10:47:19;;;;;;;15.80;2.95;;;;;;;3.83;100.00;96960.03;4927793;29;20521;-82
2021/12/07 10:49:57;;;;;;;13.93;2.75;;;;;;;3.63;100.00;96913.38;4909454;29;20501;-82
2021/12/07 10:52:30;;;;;;;9.75;2.60;;;;;;;3.94;100.00;96914.50;4928343;29;20039;-84
2021/12/07 10:55:02;;;;;;;;;;;;;;;3.96;100.00;96899.53;4928783;29;20038;-83
2021/12/07 10:57:47;;;;;;;13.75;2.53;;;;;;;3.82;100.00;96896.16;4917173;29;20297;-82
2021/12/07 11:00:29;;;;;;;14.85;3.30;;;;;;;3.98;100.00;96884.53;4908870;29;20035;-82
2021/12/07 11:03:21;;;;;;;17.83;3.45;;;;;;;4.03;100.00;96861.34;4889475;29;20044;-80
2021/12/07 11:05:54;;;;;;;16.83;3.92;;;;;;;4.09;100.00;96850.13;4920601;29;20036;-81
2021/12/07 11:08:22;;;;;;;13.75;3.97;;;;;;;4.19;100.00;96828.13;4925750;29;20029;-81
2021/12/07 11:10:50;;;;;;;12.00;3.72;;;;;;;4.24;100.00;96820.50;4907056;29;20074;-82
2021/12/07 11:13:21;;;;;;;18.17;4.22;;;;;;;4.20;100.00;96783.75;4926910;29;20120;-81
2021/12/07 11:15:56;;;;;;;9.43;3.42;;;;;;;3.99;100.00;96808.25;4925525;29;20055;-81
2021/12/07 11:18:34;;;;;;;16.63;3.50;;;;;;;3.93;100.00;96785.69;4915239;29;20111;-81
2021/12/07 11:21:05;;;;;;;15.68;3.30;;;;;;;4.21;100.00;96784.56;4924581;29;20498;-80
2021/12/07 11:23:34;;;;;;;13.23;3.92;;;;;;;4.04;100.00;96773.91;4928988;29;20046;-81
2021/12/07 11:31:50;;;;;;;19.08;3.53;;;;;;;4.36;100.00;96735.72;4902279;29;20068;-82
2021/12/07 11:34:19;;;;;;;10.13;3.17;;;;;;;4.47;100.00;96723.84;4924302;29;20473;-82
2021/12/07 11:37:08;;;;;;;20.25;3.70;;;;;;;4.59;100.00;96729.16;4907636;29;20036;-80
2021/12/07 11:39:37;;;;;;;16.05;4.13;;;;;;;4.39;100.00;96706.72;4900506;29;20472;-80
2021/12/07 11:42:08;;;;;;;14.55;3.33;;;;;;;4.45;100.00;96689.50;4890969;29;20087;-80
2021/12/07 11:44:37;;;;;;;14.48;3.58;;;;;;;4.45;100.00;96663.53;4923723;29;20038;-82
2021/12/07 11:47:04;;;;;;;15.20;3.58;;;;;;;4.23;100.00;96663.09;4896887;29;20546;-83
2021/12/07 11:49:33;;;;;;;21.35;4.07;;;;;;;4.28;100.00;96671.03;4925033;29;20036;-81
2021/12/07 11:52:02;;;;;;;13.98;3.67;;;;;;;4.11;100.00;96624.84;4907259;29;20039;-82
2021/12/07 11:54:32;;;;;;;14.93;3.35;;;;;;;4.28;100.00;96621.72;4913733;29;20031;-81
2021/12/07 11:56:58;;;;;;;12.43;3.45;;;;;;;4.31;100.00;96607.50;4914459;29;20052;-83
2021/12/07 11:59:24;;;;;;;17.52;4.07;;;;;;;4.20;100.00;96585.63;4902767;29;20077;-82
2021/12/07 12:01:52;;;;;;;18.65;4.60;;;;;;;4.33;100.00;96585.53;4905159;29;20067;-83
2021/12/07 12:04:19;;;;;;;20.17;4.70;;;;;;;4.46;100.00;96579.41;4902638;29;20024;-80
2021/12/07 12:06:47;;;;;;;18.00;3.67;;;;;;;4.38;100.00;96556.28;4907066;29;20470;-82
2021/12/07 12:09:13;;;;;;;16.92;3.92;;;;;;;4.55;100.00;96535.75;4921253;29;20028;-80
2021/12/07 12:11:46;;;;;;;15.73;3.97;;;;;;;4.40;100.00;96534.28;4924661;29;20103;-83
2021/12/07 12:14:36;;;;;;;16.25;3.08;;;;;;;4.39;100.00;96517.13;4916011;29;20036;-81
2021/12/07 12:17:27;;;;;;;15.68;3.60;;;;;;;4.42;100.00;96506.28;4893765;29;20398;-82
2021/12/07 12:19:56;;;;;;;11.07;3.30;;;;;;;4.45;100.00;96502.47;4921513;29;20044;-81
2021/12/07 12:22:29;;;;;;;15.68;3.55;;;;;;;4.52;100.00;96471.19;4910838;29;20098;-82
2021/12/07 12:24:59;;;;;;;18.77;5.05;;;;;;;4.44;100.00;96464.53;4920405;29;20044;-80
2021/12/07 12:27:33;;;;;;;22.52;4.88;;;;;;;4.49;100.00;96469.84;4905556;29;20060;-81
2021/12/07 12:30:16;;;;;;;16.23;4.30;;;;;;;4.40;100.00;96458.97;4921140;29;20028;-80
2021/12/07 12:32:45;;;;;;;13.30;2.90;;;;;;;4.40;100.00;96450.38;4904536;29;20047;-81
2021/12/07 12:35:13;;;;;;;20.73;4.28;;;;;;;4.43;100.00;96440.34;4920401;29;20039;-82
2021/12/07 12:37:45;;;;;;;18.48;3.35;;;;;;;4.56;100.00;96428.22;4921570;29;20040;-81
2021/12/07 12:40:20;;;;;;;8.65;3.05;;;;;;;4.64;100.00;96435.69;4907441;29;20040;-82
2021/12/07 12:42:50;;;;;;;15.75;3.35;;;;;;;4.52;100.00;96394.06;4913042;29;20035;-81
2021/12/07 12:45:21;;;;;;;12.00;3.20;;;;;;;4.55;100.00;96392.84;4918775;29;20119;-81
2021/12/07 12:47:59;;;;;;;14.68;3.42;;;;;;;4.69;100.00;96376.03;4908383;29;20063;-82
2021/12/07 12:50:40;;;;;;;15.45;3.60;;;;;;;4.75;100.00;96371.00;4905045;29;20032;-80
2021/12/07 12:53:19;;;;;;;17.15;3.97;;;;;;;4.80;100.00;96340.69;4928760;29;20040;-79
2021/12/07 12:55:50;;;;;;;16.30;3.35;;;;;;;4.68;100.00;96342.50;4908033;29;20066;-81
2021/12/07 12:58:16;;;;;;;13.20;3.05;;;;;;;4.79;100.00;96307.16;4924144;29;20537;-81
2021/12/07 13:01:08;;;;;;;9.32;3.90;;;;;;;4.81;100.00;96305.13;4908421;29;20071;-82
2021/12/07 13:03:48;;;;;;;20.35;3.55;;;;;;;4.86;100.00;96300.84;4922210;29;20043;-81
2021/12/07 13:06:18;;;;;;;17.00;3.80;;;;;;;4.68;100.00;96274.94;4923556;29;20024;-81
2021/12/07 13:09:09;;;;;;;16.33;3.47;;;;;;;4.81;100.00;96268.72;4903587;29;20092;-81
2021/12/07 13:11:57;;;;;;;18.40;4.63;;;;;;;4.91;100.00;96258.53;4911626;29;20090;-83
2021/12/07 13:14:23;;;;;;;21.35;4.45;;;;;;;4.88;100.00;96259.00;4921659;29;20076;-83
2021/12/07 13:17:14;;;;;;;16.98;5.15;;;;;;;4.88;100.00;96248.59;4908885;29;20126;-84
2021/12/07 13:20:04;;;;;;;13.48;4.95;;;;;;;4.81;100.00;96240.16;4908110;29;20044;-86
2021/12/07 13:22:34;;;;;;;19.83;4.57;;;;;;;4.86;100.00;96227.25;4922964;29;20171;-85
2021/12/07 13:25:06;;;;;;;14.40;4.57;;;;;;;4.88;100.00;96190.66;4921182;29;20067;-85